createdAt,value
2023-04-06T00:03:26.517Z,35.79
2023-04-06T00:08:29.111Z,35.82
2023-04-06T00:13:31.070Z,35.62
2023-04-06T00:18:33.457Z,35.92
2023-04-06T00:23:35.608Z,35.70
2023-04-06T00:28:38.809Z,35.87
2023-04-06T00:33:40.995Z,35.67
2023-04-06T00:38:43.008Z,35.78
2023-04-06T00:43:45.209Z,35.93
2023-04-06T00:48:47.541Z,36.11
2023-04-06T00:53:49.758Z,36.16
2023-04-06T00:58:51.793Z,35.88
2023-04-06T01:03:54.371Z,35.95
2023-04-06T01:08:56.645Z,36.31
2023-04-06T01:13:58.611Z,36.23
2023-04-06T01:19:00.635Z,36.08
2023-04-06T01:24:02.602Z,36.30
2023-04-06T01:29:05.030Z,36.20
2023-04-06T01:34:07.519Z,36.38
2023-04-06T01:39:09.930Z,36.06
2023-04-06T01:44:12.069Z,36.29
2023-04-06T01:49:14.257Z,36.53
2023-04-06T01:54:16.370Z,36.10
2023-04-06T01:59:18.469Z,36.19
2023-04-06T02:04:20.879Z,36.36
2023-04-06T02:09:22.796Z,36.51
2023-04-06T02:14:27.243Z,36.17
2023-04-06T02:19:29.466Z,36.60
2023-04-06T02:24:31.487Z,36.57
2023-04-06T02:29:33.484Z,36.45
2023-04-06T02:34:35.750Z,36.53
2023-04-06T02:39:37.756Z,36.63
2023-04-06T02:44:39.811Z,36.34
2023-04-06T02:49:42.125Z,36.38
2023-04-06T02:54:44.284Z,36.44
2023-04-06T02:59:46.641Z,36.29
2023-04-06T03:04:48.804Z,36.50
2023-04-06T03:09:51.171Z,36.47
2023-04-06T03:14:53.021Z,36.72
2023-04-06T03:19:55.244Z,36.44
2023-04-06T03:24:57.166Z,36.66
2023-04-06T03:29:59.266Z,36.49
2023-04-06T03:35:01.622Z,36.53
2023-04-06T03:40:04.791Z,36.69
2023-04-06T03:45:07.228Z,36.45
2023-04-06T03:50:09.879Z,36.53
2023-04-06T03:55:11.831Z,36.53
2023-04-06T04:00:14.754Z,36.62
2023-04-06T04:05:16.813Z,36.68
2023-04-06T04:10:18.825Z,36.72
2023-04-06T04:15:20.858Z,36.73
2023-04-06T04:20:23.199Z,36.83
2023-04-06T04:25:25.289Z,36.59
2023-04-06T04:30:27.215Z,36.82
2023-04-06T04:35:29.264Z,36.71
2023-04-06T04:40:31.368Z,36.64
2023-04-06T04:45:33.398Z,36.89
2023-04-06T04:50:35.737Z,36.56
2023-04-06T04:55:37.847Z,36.67
2023-04-06T05:00:39.834Z,36.61
2023-04-06T05:05:41.754Z,37.03
2023-04-06T05:10:44.369Z,36.69
2023-04-06T05:15:46.563Z,36.91
2023-04-06T05:20:48.798Z,36.90
2023-04-06T05:25:50.755Z,36.93
2023-04-06T05:30:53.072Z,36.76
2023-04-06T05:35:55.219Z,36.78
2023-04-06T05:40:57.282Z,37.08
2023-04-06T05:45:59.399Z,37.01
2023-04-06T05:51:02.303Z,36.98
2023-04-06T05:56:04.791Z,37.10
2023-04-06T06:01:07.152Z,37.16
2023-04-06T06:06:09.246Z,36.77
2023-04-06T06:11:11.600Z,36.99
2023-04-06T06:16:13.458Z,36.74
2023-04-06T06:21:16.030Z,37.13
2023-04-06T06:26:18.370Z,37.27
2023-04-06T06:31:24.078Z,37.12
2023-04-06T06:36:27.177Z,37.00
2023-04-06T06:41:29.406Z,37.04
2023-04-06T06:46:31.392Z,36.91
2023-04-06T06:51:33.337Z,36.79
2023-04-06T06:56:37.210Z,37.25
2023-04-06T07:01:39.562Z,36.89
2023-04-06T07:06:42.037Z,37.23
2023-04-06T07:11:44.157Z,37.78
2023-04-06T07:16:46.718Z,37.38
2023-04-06T07:21:50.616Z,37.08
2023-04-06T07:26:53.012Z,37.10
2023-04-06T07:31:55.937Z,37.07
2023-04-06T07:36:58.049Z,37.52
2023-04-06T07:42:00.155Z,37.42
2023-04-06T07:47:02.423Z,37.07
2023-04-06T07:52:05.133Z,37.14
2023-04-06T07:57:07.221Z,36.74
2023-04-06T08:02:09.413Z,36.67
2023-04-06T08:07:11.802Z,36.63
2023-04-06T08:12:13.857Z,36.48
2023-04-06T08:17:15.797Z,36.62
2023-04-06T08:22:17.705Z,36.30
2023-04-06T08:27:19.685Z,36.38
2023-04-06T08:32:21.873Z,36.54
2023-04-06T08:37:24.198Z,36.40
2023-04-06T08:42:27.627Z,36.37
2023-04-06T08:47:29.830Z,36.25
2023-04-06T08:52:34.080Z,36.22
2023-04-06T08:57:37.700Z,36.35
2023-04-06T09:02:47.464Z,36.60
2023-04-06T09:07:49.508Z,36.50
2023-04-06T09:12:52.843Z,36.31
2023-04-06T09:17:55.885Z,36.45
2023-04-06T09:22:58.113Z,36.53
2023-04-06T09:28:05.231Z,36.58
2023-04-06T09:33:08.642Z,36.43
2023-04-06T09:38:13.551Z,36.65
2023-04-06T09:43:26.120Z,36.89
2023-04-06T09:48:32.108Z,36.35
2023-04-06T09:53:38.604Z,36.45
2023-04-06T09:58:44.248Z,35.99
2023-04-06T10:04:07.993Z,35.77
2023-04-06T10:09:11.089Z,35.93
2023-04-06T10:14:13.626Z,35.88
2023-04-06T10:19:22.061Z,36.80
2023-04-06T10:24:23.997Z,36.96
2023-04-06T10:29:26.174Z,36.86
2023-04-06T10:34:36.871Z,36.88
2023-04-06T10:39:47.828Z,36.79
2023-04-06T10:44:51.253Z,36.66
2023-04-06T10:49:53.322Z,36.69
2023-04-06T10:54:56.209Z,36.82
2023-04-06T10:59:58.456Z,36.64
2023-04-06T11:05:00.718Z,36.93
2023-04-06T11:15:08.503Z,36.38
2023-04-06T11:20:13.101Z,36.67
2023-04-06T11:25:15.208Z,36.54
2023-04-06T11:30:17.780Z,36.75
2023-04-06T11:35:25.578Z,36.58
2023-04-06T11:40:29.282Z,36.84
2023-04-06T11:45:41.247Z,36.58
2023-04-06T11:50:43.329Z,36.81
2023-04-06T11:55:48.294Z,36.71
2023-04-06T12:00:54.276Z,36.89
2023-04-06T12:05:57.155Z,37.02
2023-04-06T12:11:01.121Z,36.82
2023-04-06T12:16:03.186Z,37.76
2023-04-06T12:21:07.007Z,38.14
2023-04-06T12:26:13.166Z,38.41
2023-04-06T12:31:20.207Z,39.11
2023-04-06T12:36:22.586Z,39.59
2023-04-06T12:41:24.728Z,39.94
2023-04-06T12:46:27.473Z,40.19
2023-04-06T12:51:29.775Z,39.94
2023-04-06T12:56:32.588Z,40.79
2023-04-06T13:01:35.100Z,40.94
2023-04-06T13:06:37.538Z,40.87
2023-04-06T13:11:40.258Z,40.95
2023-04-06T13:16:42.581Z,40.80
2023-04-06T13:21:44.965Z,40.97
2023-04-06T13:26:47.437Z,40.80
2023-04-06T13:31:49.611Z,40.94
2023-04-06T13:36:52.044Z,41.02
2023-04-06T13:41:57.489Z,40.41
2023-04-06T13:46:59.718Z,40.46
2023-04-06T13:52:01.960Z,41.09
2023-04-06T13:57:04.342Z,41.61
2023-04-06T14:02:08.613Z,41.61
2023-04-06T14:07:11.680Z,42.13
2023-04-06T14:12:13.517Z,42.44
2023-04-06T14:17:15.502Z,42.72
2023-04-06T14:22:19.107Z,42.86
2023-04-06T14:27:21.391Z,42.15
2023-04-06T14:32:23.570Z,41.98
2023-04-06T14:37:25.532Z,41.51
2023-04-06T14:42:27.632Z,40.74
2023-04-06T14:47:29.635Z,40.66
2023-04-06T14:52:32.707Z,40.48
2023-04-06T14:57:35.397Z,40.42
2023-04-06T15:02:38.810Z,40.12
2023-04-06T15:07:41.304Z,39.83
2023-04-06T15:12:43.241Z,39.96
2023-04-06T15:17:45.251Z,39.78
2023-04-06T15:22:47.478Z,39.68
2023-04-06T15:27:49.599Z,39.39
2023-04-06T15:32:56.614Z,39.67
2023-04-06T15:37:58.826Z,39.51
2023-04-06T15:43:00.872Z,39.28
2023-04-06T15:48:03.761Z,39.43
2023-04-06T15:53:07.665Z,40.85
2023-04-06T15:58:09.716Z,41.35
2023-04-06T16:03:12.308Z,41.48
2023-04-06T16:08:16.684Z,41.17
2023-04-06T16:13:18.934Z,41.22
2023-04-06T16:18:21.359Z,41.00
2023-04-06T16:23:23.597Z,40.86
2023-04-06T16:28:26.101Z,40.80
2023-04-06T16:33:28.067Z,40.98
2023-04-06T16:38:36.014Z,40.99
2023-04-06T16:43:38.198Z,40.74
2023-04-06T16:48:40.414Z,40.86
2023-04-06T16:53:42.395Z,40.48
2023-04-06T16:58:45.716Z,41.43
2023-04-06T17:03:48.299Z,41.22
2023-04-06T17:08:51.475Z,41.51
2023-04-06T17:13:53.668Z,41.42
2023-04-06T17:18:55.758Z,41.38
2023-04-06T17:23:57.646Z,41.38
2023-04-06T17:28:59.835Z,40.83
2023-04-06T17:34:01.881Z,41.71
2023-04-06T17:39:04.331Z,42.52
2023-04-06T17:44:06.533Z,42.28
2023-04-06T17:49:09.730Z,43.04
2023-04-06T17:54:12.432Z,42.65
2023-04-06T17:59:14.398Z,42.95
2023-04-06T18:04:16.855Z,43.17
2023-04-06T18:09:18.867Z,44.62
2023-04-06T18:14:20.945Z,44.75
2023-04-06T18:19:23.280Z,44.09
2023-04-06T18:24:40.422Z,43.19
2023-04-06T18:29:45.765Z,42.54
2023-04-06T18:34:48.031Z,42.20
2023-04-06T18:39:50.616Z,41.83
2023-04-06T18:44:52.537Z,41.65
2023-04-06T18:49:54.676Z,41.40
2023-04-06T18:54:56.782Z,41.12
2023-04-06T18:59:58.853Z,40.82
2023-04-06T19:05:01.371Z,40.50
2023-04-06T19:10:07.027Z,40.50
2023-04-06T19:15:09.735Z,40.37
2023-04-06T19:20:12.072Z,40.72
2023-04-06T19:25:14.344Z,40.32
2023-04-06T19:30:16.815Z,41.01
2023-04-06T19:35:19.398Z,41.14
2023-04-06T19:40:21.519Z,41.43
2023-04-06T19:45:23.795Z,41.91
2023-04-06T19:50:25.831Z,41.70
2023-04-06T19:55:27.717Z,41.53
2023-04-06T20:00:29.952Z,41.75
2023-04-06T20:05:31.947Z,42.29
2023-04-06T20:10:34.411Z,41.64
2023-04-06T20:15:36.674Z,42.34
2023-04-06T20:20:38.829Z,42.16
2023-04-06T20:25:40.893Z,42.28
2023-04-06T20:30:43.080Z,41.65
2023-04-06T20:35:45.331Z,42.94
2023-04-06T20:40:47.430Z,43.88
2023-04-06T20:45:49.884Z,43.15
2023-04-06T20:50:53.026Z,41.96
2023-04-06T20:55:55.232Z,42.32
2023-04-06T21:00:57.591Z,41.83
2023-04-06T21:06:00.341Z,43.41
2023-04-06T21:11:02.917Z,43.84
2023-04-06T21:16:05.722Z,43.83
2023-04-06T21:21:07.730Z,41.62
2023-04-06T21:26:13.139Z,41.57
2023-04-06T21:31:16.973Z,41.77
2023-04-06T21:36:19.902Z,41.68
2023-04-06T21:41:22.334Z,41.56
2023-04-06T21:46:24.338Z,41.14
2023-04-06T21:51:26.253Z,41.10
2023-04-06T21:56:28.301Z,41.01
2023-04-06T22:01:30.188Z,40.86
2023-04-06T22:06:32.068Z,40.70
2023-04-06T22:11:34.135Z,40.63
2023-04-06T22:16:36.104Z,40.70
2023-04-06T22:21:38.313Z,40.82
2023-04-06T22:26:40.567Z,40.65
2023-04-06T22:31:42.818Z,40.67
2023-04-06T22:36:46.094Z,40.45
2023-04-06T22:41:48.035Z,40.35
2023-04-06T22:46:50.123Z,40.54
2023-04-06T22:51:52.341Z,40.27
2023-04-06T22:56:55.197Z,40.32
2023-04-06T23:01:57.595Z,40.25
2023-04-06T23:06:59.614Z,40.50
2023-04-06T23:12:02.402Z,40.25
2023-04-06T23:17:04.889Z,40.12
2023-04-06T23:22:07.080Z,40.39
2023-04-06T23:27:08.978Z,40.24
2023-04-06T23:32:11.265Z,40.53
2023-04-06T23:37:13.399Z,40.36
2023-04-06T23:42:15.477Z,40.50
2023-04-06T23:47:17.471Z,40.59
2023-04-06T23:52:19.695Z,40.10
2023-04-06T23:57:21.591Z,40.50
